»·PEaware :: N45LR KSAN-KPSP

N45LR :: KSAN-KPSP

FLIGHT INFORMATION

Flight Status: Arrived
Operator: Privately registered:
United States
More flights under this callsign
Pilot: Anonymous 24916 (24916)
Aircraft: Unknown
(LJ4)
More flights by this aircraft type
Origin: KSAN San Diego Intl-Lindbergh
United States
Destination: KPSP Palm Springs Intl
United States
More flights between these airports :: More routes between these airports
Route: +JLI V208 TRM
File this flight plan on PilotEdge
Remarks: RWY13R requested for landing
Altitude:
(Current/Filed)
17,000ft
Speed:
(Current/Filed)
350kts
Departed: 06-Jun-19 05:55 PM
Arrived: 06-Jun-19 06:27 PM
Distance/Time
Traveled:
74nm/0:32
Distance/Time
To Go:
Arrived

Flight Plot

Page will automatically refresh every two minutes.


Map Options




Map Legend


Flown Route
Filed Route
Departure Airport
Arrival Airport
Navaid (VOR, NDB)
Fix

Horizontal Profiles

Position Reports

Time Latitude Longitude Heading Altitude Ground
Speed
06-Jun-19 17:30 32.734539 -117.179529 14 19ft 0kts
06-Jun-19 17:31 32.734539 -117.179529 14 19ft 0kts
06-Jun-19 17:32 32.734539 -117.179529 14 19ft 0kts
06-Jun-19 17:33 32.734539 -117.179529 14 19ft 0kts
06-Jun-19 17:34 32.734539 -117.179529 14 19ft 0kts
06-Jun-19 17:35 32.734539 -117.179529 14 19ft 0kts
06-Jun-19 17:36 32.734539 -117.179529 14 19ft 0kts
06-Jun-19 17:37 32.734539 -117.179529 14 19ft 0kts
06-Jun-19 17:38 32.734539 -117.179529 14 19ft 0kts
06-Jun-19 17:39 32.734539 -117.179529 14 19ft 0kts
06-Jun-19 17:40 32.734539 -117.179529 14 19ft 0kts
06-Jun-19 17:41 32.734539 -117.179529 14 19ft 0kts
06-Jun-19 17:42 32.734539 -117.179529 14 19ft 0kts
06-Jun-19 17:43 32.734539 -117.179529 14 19ft 0kts
06-Jun-19 17:44 32.734539 -117.179529 14 19ft 0kts
06-Jun-19 17:45 32.734539 -117.179529 14 19ft 0kts
06-Jun-19 17:46 32.734540 -117.179529 14 19ft 0kts
06-Jun-19 17:47 32.734572 -117.179512 33 19ft 3kts
06-Jun-19 17:48 32.734022 -117.179358 195 19ft 0kts
06-Jun-19 17:50 32.733700 -117.179463 195 19ft 10kts
06-Jun-19 17:51 32.731449 -117.176256 106 19ft 17kts
06-Jun-19 17:52 32.731135 -117.175642 149 19ft 0kts
06-Jun-19 17:53 32.731133 -117.175641 149 19ft 0kts
06-Jun-19 17:54 32.730507 -117.175310 182 19ft 12kts
06-Jun-19 17:55 32.731665 -117.181879 284 19ft 107kts
06-Jun-19 17:56 32.755695 -117.241281 301 1530ft 237kts
06-Jun-19 17:57 32.794390 -117.309186 302 4155ft 255kts
06-Jun-19 17:58 32.835385 -117.380036 302 6868ft 262kts
06-Jun-19 17:59 32.882681 -117.442836 343 9842ft 263kts
06-Jun-19 18:00 32.941277 -117.399322 61 12853ft 264kts
06-Jun-19 18:01 32.960795 -117.315428 78 15492ft 274kts
06-Jun-19 18:02 32.981640 -117.220674 75 16930ft 328kts
06-Jun-19 18:03 33.009452 -117.108001 74 16975ft 359kts
06-Jun-19 18:04 33.038219 -116.994133 74 16975ft 357kts
06-Jun-19 18:05 33.066875 -116.880468 74 16976ft 357kts
06-Jun-19 18:06 33.095355 -116.766976 74 16971ft 357kts
06-Jun-19 18:07 33.123619 -116.653790 74 16960ft 357kts
06-Jun-19 18:07 33.145419 -116.558572 86 16939ft 355kts
06-Jun-19 18:09 33.210958 -116.459000 19 16883ft 358kts
06-Jun-19 18:10 33.303491 -116.415737 24 16817ft 357kts
06-Jun-19 18:10 33.376100 -116.368065 30 16583ft 364kts
06-Jun-19 18:11 33.457201 -116.304382 34 14349ft 331kts
06-Jun-19 18:13 33.542431 -116.232924 34 11308ft 307kts
06-Jun-19 18:13 33.599711 -116.184347 34 9138ft 300kts
06-Jun-19 18:14 33.675460 -116.170621 342 8942ft 295kts
06-Jun-19 18:16 33.766050 -116.201782 340 8957ft 290kts
06-Jun-19 18:16 33.826628 -116.234530 316 8030ft 281kts
06-Jun-19 18:17 33.878859 -116.291240 312 6089ft 233kts
06-Jun-19 18:18 33.921960 -116.337673 312 6034ft 199kts
06-Jun-19 18:19 33.963734 -116.382335 312 6034ft 201kts
06-Jun-19 18:20 34.006819 -116.428752 311 6058ft 211kts
06-Jun-19 18:21 33.995911 -116.484628 223 5012ft 193kts
06-Jun-19 18:22 33.957849 -116.526645 222 3268ft 183kts
06-Jun-19 18:23 33.922267 -116.565802 222 2645ft 170kts
06-Jun-19 18:24 33.883959 -116.560545 136 1952ft 174kts
06-Jun-19 18:25 33.848801 -116.524786 143 848ft 160kts
06-Jun-19 18:26 33.823507 -116.502648 237 481ft 11kts
06-Jun-19 18:27 33.823217 -116.503377 261 481ft 0kts
06-Jun-19 18:28 33.825590 -116.506090 323 481ft 22kts
06-Jun-19 18:29 33.828646 -116.510229 269 481ft 11kts
06-Jun-19 18:30 33.828404 -116.512463 180 481ft 5kts
06-Jun-19 18:33 33.828351 -116.512464 180 481ft 0kts

Navigation Log

Ident Type
Flight plan parsing failed, navigation log unavailable